createdAt,value
2017-02-06T00:00:35.291Z,98.39
2017-02-06T00:01:15.925Z,98.29
2017-02-06T00:01:56.569Z,97.82
2017-02-06T00:02:37.247Z,98.48
2017-02-06T00:03:17.865Z,98.77
2017-02-06T00:03:58.562Z,99.05
2017-02-06T00:04:39.155Z,99.05
2017-02-06T00:05:19.818Z,98.96
2017-02-06T00:06:00.462Z,98.67
2017-02-06T00:06:41.131Z,98.77
2017-02-06T00:07:21.783Z,98.67
2017-02-06T00:08:02.434Z,98.96
2017-02-06T00:08:43.090Z,98.77
2017-02-06T00:09:23.733Z,98.58
2017-02-06T00:10:04.394Z,98.29
2017-02-06T00:10:45.058Z,98.1
2017-02-06T00:11:25.688Z,98.1
2017-02-06T00:12:06.361Z,98.86
2017-02-06T00:12:47.031Z,98.67
2017-02-06T00:13:27.658Z,99.05
2017-02-06T00:14:08.312Z,98.67
2017-02-06T00:14:48.963Z,98.77
2017-02-06T00:15:29.623Z,98.96
2017-02-06T00:16:10.255Z,98.39
2017-02-06T00:16:50.923Z,98.39
2017-02-06T00:17:31.571Z,98.1
2017-02-06T00:18:12.226Z,98.29
2017-02-06T00:18:52.880Z,98.58
2017-02-06T00:19:33.480Z,98.77
2017-02-06T00:20:14.069Z,98.86
2017-02-06T00:20:54.641Z,98.96
2017-02-06T00:21:35.282Z,98.67
2017-02-06T00:22:15.867Z,98.67
2017-02-06T00:22:56.470Z,98.77
2017-02-06T00:23:37.019Z,99.05
2017-02-06T00:24:17.690Z,98.77
2017-02-06T00:24:58.317Z,98.77
2017-02-06T00:25:38.874Z,98.58
2017-02-06T00:26:19.448Z,98.67
2017-02-06T00:27:00.102Z,98.58
2017-02-06T00:27:40.727Z,98.58
2017-02-06T00:28:21.282Z,98.58
2017-02-06T00:29:01.856Z,98.77
2017-02-06T00:29:42.506Z,98.77
2017-02-06T00:30:23.100Z,98.48
2017-02-06T00:31:03.793Z,98.58
2017-02-06T00:31:44.383Z,98.67
2017-02-06T00:32:25.002Z,98.39
2017-02-06T00:33:05.635Z,98.58
2017-02-06T00:33:47.221Z,99.05
2017-02-06T00:34:27.780Z,98.96
2017-02-06T00:35:08.440Z,98.96
2017-02-06T00:35:49.140Z,99.15
2017-02-06T00:36:29.836Z,98.96
2017-02-06T00:37:10.407Z,98.77
2017-02-06T00:37:51.052Z,98.86
2017-02-06T00:38:31.752Z,98.86
2017-02-06T00:39:12.345Z,99.05
2017-02-06T00:39:52.900Z,99.15
2017-02-06T00:40:33.576Z,99.05
2017-02-06T00:41:14.261Z,99.24
2017-02-06T00:41:54.956Z,99.05
2017-02-06T00:42:35.545Z,98.86
2017-02-06T00:43:16.177Z,99.71
2017-02-06T00:43:56.873Z,99.71
2017-02-06T00:44:37.528Z,98.86
2017-02-06T00:45:18.181Z,98.77
2017-02-06T00:45:58.815Z,99.24
2017-02-06T00:46:39.588Z,99.15
2017-02-06T00:47:20.238Z,99.15
2017-02-06T00:48:00.894Z,99.24
2017-02-06T00:48:41.546Z,99.8
2017-02-06T00:49:22.199Z,99.71
2017-02-06T00:50:02.851Z,99.71
2017-02-06T00:50:43.493Z,99.52
2017-02-06T00:51:24.176Z,99.43
2017-02-06T00:52:04.811Z,99.43
2017-02-06T00:52:45.465Z,99.62
2017-02-06T00:53:26.119Z,99.52
2017-02-06T00:54:06.754Z,99.33
2017-02-06T00:54:47.424Z,99.62
2017-02-06T00:55:28.090Z,99.43
2017-02-06T00:56:08.726Z,99.33
2017-02-06T00:56:49.364Z,99.43
2017-02-06T00:57:30.035Z,99.71
2017-02-06T00:58:10.672Z,99.43
2017-02-06T00:58:51.342Z,99.43
2017-02-06T00:59:32.081Z,99.71
2017-02-06T01:00:12.702Z,99.71
2017-02-06T01:00:53.371Z,99.52
2017-02-06T01:01:34.053Z,98.77
2017-02-06T01:02:14.662Z,99.15
2017-02-06T01:02:55.299Z,98.96
2017-02-06T01:03:35.975Z,99.09
2017-02-06T01:04:16.621Z,99.05
2017-02-06T01:04:57.270Z,99.15
2017-02-06T01:05:37.932Z,99
2017-02-06T01:06:18.596Z,99.09
2017-02-06T01:06:59.246Z,99
2017-02-06T01:07:39.898Z,99.19
2017-02-06T01:08:20.557Z,98.9
2017-02-06T01:09:01.208Z,98.71
2017-02-06T01:09:41.841Z,98.81
2017-02-06T01:10:22.515Z,99.66
2017-02-06T01:11:03.145Z,99.66
2017-02-06T01:11:43.798Z,99.47
2017-02-06T01:12:24.471Z,99.66
2017-02-06T01:13:05.204Z,99.66
2017-02-06T01:13:45.885Z,99.38
2017-02-06T01:14:26.504Z,99.66
2017-02-06T01:15:07.200Z,99.47
2017-02-06T01:15:47.757Z,98.81
2017-02-06T01:16:28.385Z,98.71
2017-02-06T01:17:09.070Z,99.28
2017-02-06T01:17:49.820Z,99.19
2017-02-06T01:18:30.427Z,99
2017-02-06T01:19:11.088Z,99.19
2017-02-06T01:19:51.739Z,99.19
2017-02-06T01:20:32.404Z,99
2017-02-06T01:21:13.063Z,99.09
2017-02-06T01:21:53.693Z,98.9
2017-02-06T01:22:34.364Z,99.09
2017-02-06T01:23:15.017Z,99.47
2017-02-06T01:23:55.679Z,99.85
2017-02-06T01:24:36.328Z,98.71
2017-02-06T01:25:16.969Z,99.09
2017-02-06T01:25:57.635Z,98.9
2017-02-06T01:26:38.279Z,99.38
2017-02-06T01:27:18.913Z,99.28
2017-02-06T01:27:59.558Z,98.9
2017-02-06T01:28:40.261Z,99
2017-02-06T01:29:20.951Z,99.28
2017-02-06T01:30:01.552Z,99
2017-02-06T01:30:42.202Z,99
2017-02-06T01:31:22.856Z,99
2017-02-06T01:32:03.497Z,99.09
2017-02-06T01:32:44.158Z,99
2017-02-06T01:33:24.804Z,98.9
2017-02-06T01:34:05.443Z,99
2017-02-06T01:34:46.098Z,98.9
2017-02-06T01:35:26.673Z,99.38
2017-02-06T01:36:07.319Z,99.28
2017-02-06T01:36:48.976Z,99.19
2017-02-06T01:37:29.544Z,98.9
2017-02-06T01:38:10.186Z,98.9
2017-02-06T01:38:50.830Z,98.9
2017-02-06T01:39:31.382Z,99.19
2017-02-06T01:40:12.046Z,99.09
2017-02-06T01:40:52.745Z,98.9
2017-02-06T01:41:33.343Z,99
2017-02-06T01:42:13.981Z,98.81
2017-02-06T01:42:54.696Z,98.81
2017-02-06T01:43:35.377Z,98.81
2017-02-06T01:44:16.054Z,98.9
2017-02-06T01:44:56.627Z,99
2017-02-06T01:45:37.275Z,99.19
2017-02-06T01:46:17.972Z,99.28
2017-02-06T01:46:58.662Z,99
2017-02-06T01:47:39.265Z,98.81
2017-02-06T01:48:20.895Z,99.85
2017-02-06T01:49:01.593Z,99.66
2017-02-06T01:49:42.172Z,99.85
2017-02-06T01:50:22.848Z,99.85
2017-02-06T01:51:03.501Z,99.85
2017-02-06T01:51:44.073Z,99.47
2017-02-06T01:52:24.727Z,99
2017-02-06T01:53:05.381Z,99.09
2017-02-06T01:53:45.932Z,98.9
2017-02-06T01:54:26.612Z,98.81
2017-02-06T01:55:07.241Z,99
2017-02-06T01:55:47.868Z,99
2017-02-06T01:56:28.541Z,99
2017-02-06T01:57:09.221Z,98.81
2017-02-06T01:57:49.846Z,98.81
2017-02-06T01:58:31.525Z,98.81
2017-02-06T01:59:12.178Z,98.62
2017-02-06T01:59:52.860Z,98.52
2017-02-06T02:00:33.482Z,98.62
2017-02-06T02:01:14.140Z,98.33
2017-02-06T02:01:54.788Z,98.71
2017-02-06T02:02:35.441Z,98.9
2017-02-06T02:03:16.095Z,98.81
2017-02-06T02:03:56.745Z,98.71
2017-02-06T02:04:37.392Z,98.9
2017-02-06T02:05:17.950Z,99
2017-02-06T02:05:58.603Z,98.62
2017-02-06T02:06:39.235Z,99
2017-02-06T02:07:19.808Z,98.9
2017-02-06T02:08:00.465Z,99.28
2017-02-06T02:08:41.087Z,99.09
2017-02-06T02:09:21.664Z,99.66
2017-02-06T02:10:02.319Z,99.66
2017-02-06T02:10:42.988Z,99.66
2017-02-06T02:11:23.619Z,99.57
2017-02-06T02:12:04.286Z,99.57
2017-02-06T02:12:44.930Z,99.19
2017-02-06T02:13:25.582Z,99.85
2017-02-06T02:14:06.238Z,99.85
2017-02-06T02:14:46.869Z,99.47
2017-02-06T02:15:27.414Z,99.66
2017-02-06T02:16:08.092Z,99.76
2017-02-06T02:16:48.716Z,99.76
2017-02-06T02:17:29.290Z,99.99
2017-02-06T02:18:10.967Z,99.99
2017-02-06T02:18:51.595Z,99.99
2017-02-06T02:19:32.247Z,99.85
2017-02-06T02:20:12.902Z,99.95
2017-02-06T02:20:53.554Z,99.99
2017-02-06T02:21:34.215Z,99.95
2017-02-06T02:22:14.861Z,99.99
2017-02-06T02:22:55.513Z,99.99
2017-02-06T02:23:36.167Z,99.99
2017-02-06T02:24:16.740Z,99.99
2017-02-06T02:24:57.393Z,99.99
2017-02-06T02:25:38.024Z,99.99
2017-02-06T02:26:18.601Z,99.99
2017-02-06T02:26:59.232Z,99.99
2017-02-06T02:27:39.883Z,99.99
2017-02-06T02:28:20.451Z,99.99
2017-02-06T02:29:01.104Z,99.99
2017-02-06T02:29:41.735Z,99.99
2017-02-06T02:30:22.289Z,99.99
2017-02-06T02:31:02.965Z,99.99
2017-02-06T02:31:43.659Z,99.99
2017-02-06T02:32:24.359Z,99.99
2017-02-06T02:33:04.933Z,99.99
2017-02-06T02:33:45.595Z,99.99
2017-02-06T02:34:26.175Z,99.99
2017-02-06T02:35:06.875Z,99.99
2017-02-06T02:35:47.530Z,99.99
2017-02-06T02:36:28.202Z,99.99
2017-02-06T02:37:08.835Z,99.99
2017-02-06T02:37:49.489Z,99.99
2017-02-06T02:38:30.153Z,99.99
2017-02-06T02:39:10.792Z,99.99
2017-02-06T02:39:51.494Z,99.99
2017-02-06T02:40:32.192Z,99.99
2017-02-06T02:41:12.750Z,99.99
2017-02-06T02:41:53.405Z,99.99
2017-02-06T02:42:33.999Z,99.99
2017-02-06T02:43:14.586Z,99.99
2017-02-06T02:43:55.160Z,99.99
2017-02-06T02:44:35.816Z,99.99
2017-02-06T02:45:16.480Z,99.99
2017-02-06T02:45:57.127Z,99.99
2017-02-06T02:46:37.770Z,99.99
2017-02-06T02:47:18.423Z,99.99
2017-02-06T02:47:59.078Z,99.99
2017-02-06T02:48:39.727Z,99.99
2017-02-06T02:49:20.388Z,99.99
2017-02-06T02:50:01.085Z,99.99
2017-02-06T02:50:41.834Z,99.99
2017-02-06T02:51:22.589Z,99.99
2017-02-06T02:52:03.253Z,99.99
2017-02-06T02:52:43.908Z,99.99
2017-02-06T02:53:24.560Z,99.99
2017-02-06T02:54:05.207Z,99.99
2017-02-06T02:54:45.791Z,99.99
2017-02-06T02:55:26.489Z,99.99
2017-02-06T02:56:07.044Z,99.99
2017-02-06T02:56:47.718Z,99.99
2017-02-06T02:57:28.309Z,99.99
2017-02-06T02:58:08.898Z,99.99
2017-02-06T02:58:49.449Z,99.99
2017-02-06T02:59:30.129Z,99.99
2017-02-06T03:00:10.756Z,99.99
2017-02-06T03:00:51.329Z,99.99
2017-02-06T03:01:31.981Z,99.99
2017-02-06T03:02:12.612Z,99.99
2017-02-06T03:02:53.163Z,99.99
2017-02-06T03:03:33.837Z,99.99
2017-02-06T03:04:14.471Z,99.99
2017-02-06T03:04:55.068Z,99.99
2017-02-06T03:05:35.694Z,99.99
2017-02-06T03:06:16.328Z,99.99
2017-02-06T03:06:56.981Z,99.99
2017-02-06T03:07:37.530Z,99.99
2017-02-06T03:08:18.186Z,99.99
2017-02-06T03:08:58.764Z,99.99
2017-02-06T03:09:39.386Z,99.99
2017-02-06T03:10:20.064Z,99.99
2017-02-06T03:11:00.713Z,99.99
2017-02-06T03:11:41.370Z,99.99
2017-02-06T03:12:22.026Z,99.99
2017-02-06T03:13:02.672Z,99.99
2017-02-06T03:13:43.324Z,99.99
2017-02-06T03:14:23.978Z,99.99
2017-02-06T03:15:04.631Z,99.99
2017-02-06T03:15:45.285Z,99.99
2017-02-06T03:16:25.925Z,99.99
2017-02-06T03:17:06.515Z,99.99
2017-02-06T03:17:47.188Z,99.99
2017-02-06T03:18:27.820Z,99.99
2017-02-06T03:19:08.490Z,99.99
2017-02-06T03:19:49.051Z,99.99
2017-02-06T03:20:29.649Z,99.99
2017-02-06T03:21:10.281Z,99.99
2017-02-06T03:21:50.814Z,99.99
2017-02-06T03:22:32.428Z,99.99
2017-02-06T03:23:13.061Z,99.99
2017-02-06T03:23:53.632Z,99.99
2017-02-06T03:24:34.285Z,99.99
2017-02-06T03:25:14.938Z,99.99
2017-02-06T03:25:55.584Z,99.99
2017-02-06T03:26:36.277Z,99.99
2017-02-06T03:27:16.896Z,99.99
2017-02-06T03:27:57.543Z,99.99
2017-02-06T03:28:38.202Z,99.99
2017-02-06T03:29:18.855Z,99.99
2017-02-06T03:29:59.449Z,99.99
2017-02-06T03:30:40.038Z,99.99
2017-02-06T03:31:20.601Z,99.99
2017-02-06T03:32:01.263Z,99.99
2017-02-06T03:32:41.865Z,99.99
2017-02-06T03:33:22.560Z,99.99
2017-02-06T03:34:03.124Z,99.99
2017-02-06T03:34:43.771Z,99.99
2017-02-06T03:35:24.425Z,99.99
2017-02-06T03:36:05.079Z,99.99
2017-02-06T03:36:45.732Z,99.99
2017-02-06T03:37:26.399Z,99.99
2017-02-06T03:38:07.037Z,99.99
2017-02-06T03:38:47.706Z,99.99
2017-02-06T03:39:28.347Z,99.99
2017-02-06T03:40:08.998Z,99.99
2017-02-06T03:40:49.656Z,99.99
2017-02-06T03:41:30.317Z,99.99
2017-02-06T03:42:10.962Z,99.99
2017-02-06T03:42:51.608Z,99.99
2017-02-06T03:43:32.263Z,99.99
2017-02-06T03:44:12.953Z,99.99
2017-02-06T03:44:53.580Z,99.99
2017-02-06T03:45:34.220Z,99.99
2017-02-06T03:46:14.872Z,99.99
2017-02-06T03:46:55.530Z,99.99
2017-02-06T03:47:36.181Z,99.99
2017-02-06T03:48:16.826Z,99.99
2017-02-06T03:48:57.499Z,99.99
2017-02-06T03:49:38.137Z,99.99
2017-02-06T03:50:19.774Z,99.99
2017-02-06T03:51:00.460Z,99.99
2017-02-06T03:51:41.021Z,99.99
2017-02-06T03:52:21.675Z,99.99
2017-02-06T03:53:02.265Z,99.99
2017-02-06T03:53:42.865Z,99.99
2017-02-06T03:54:23.438Z,99.99
2017-02-06T03:55:04.079Z,99.99
2017-02-06T03:55:44.716Z,99.99
2017-02-06T03:56:25.280Z,99.99
2017-02-06T03:57:05.941Z,99.99
2017-02-06T03:57:46.589Z,99.99
2017-02-06T03:58:27.139Z,99.99
2017-02-06T03:59:07.807Z,99.99
2017-02-06T03:59:48.440Z,99.99
2017-02-06T04:00:28.993Z,99.99
2017-02-06T04:01:10.569Z,99.99
2017-02-06T04:01:51.222Z,99.99
2017-02-06T04:02:31.884Z,99.99
2017-02-06T04:03:12.537Z,99.99
2017-02-06T04:03:53.182Z,99.99
2017-02-06T04:04:33.845Z,99.99
2017-02-06T04:05:14.464Z,99.99
2017-02-06T04:05:55.038Z,99.99
2017-02-06T04:06:35.686Z,99.99
2017-02-06T04:07:16.323Z,99.99
2017-02-06T04:07:56.894Z,99.99
2017-02-06T04:08:37.556Z,99.99
2017-02-06T04:09:18.190Z,99.99
2017-02-06T04:09:58.748Z,99.99
2017-02-06T04:10:39.412Z,99.99
2017-02-06T04:11:20.094Z,99.99
2017-02-06T04:12:00.698Z,99.99
2017-02-06T04:12:41.272Z,99.99
2017-02-06T04:13:21.920Z,99.99
2017-02-06T04:14:02.499Z,99.99
2017-02-06T04:14:43.107Z,99.99
2017-02-06T04:15:23.747Z,99.99
2017-02-06T04:16:04.406Z,99.99
2017-02-06T04:16:45.062Z,99.99
2017-02-06T04:17:25.707Z,99.99
2017-02-06T04:18:06.359Z,99.99
2017-02-06T04:18:47.064Z,99.99
2017-02-06T04:19:27.678Z,99.99
2017-02-06T04:20:08.329Z,99.99
2017-02-06T04:20:48.972Z,99.99
2017-02-06T04:21:29.634Z,99.99
2017-02-06T04:22:10.281Z,99.99
2017-02-06T04:22:50.928Z,99.99
2017-02-06T04:23:31.593Z,99.99
2017-02-06T04:24:12.247Z,99.99
2017-02-06T04:24:52.856Z,99.99
2017-02-06T04:25:33.468Z,99.99
2017-02-06T04:26:14.118Z,99.99
2017-02-06T04:26:54.772Z,99.99
2017-02-06T04:27:35.369Z,99.99
2017-02-06T04:28:16.062Z,99.99
2017-02-06T04:28:56.628Z,99.99
2017-02-06T04:29:37.279Z,99.99
2017-02-06T04:30:17.921Z,99.99
2017-02-06T04:30:58.485Z,99.99
2017-02-06T04:31:39.141Z,99.99
2017-02-06T04:32:19.772Z,99.99
2017-02-06T04:33:00.339Z,99.99
2017-02-06T04:33:40.994Z,99.99
2017-02-06T04:34:21.634Z,99.99
2017-02-06T04:35:02.273Z,99.99
2017-02-06T04:35:42.939Z,99.99
2017-02-06T04:36:23.589Z,99.99
2017-02-06T04:37:04.231Z,99.99
2017-02-06T04:37:44.895Z,99.99
2017-02-06T04:38:25.547Z,99.99
2017-02-06T04:39:06.203Z,99.99
2017-02-06T04:39:46.859Z,99.99
2017-02-06T04:40:27.510Z,99.99
2017-02-06T04:41:08.161Z,99.99
2017-02-06T04:41:48.820Z,99.99
2017-02-06T04:42:29.466Z,99.99
2017-02-06T04:43:10.113Z,99.99
2017-02-06T04:43:50.763Z,99.99
2017-02-06T04:44:31.414Z,99.99
2017-02-06T04:45:12.073Z,99.99
2017-02-06T04:45:52.729Z,99.99
2017-02-06T04:46:33.374Z,99.99
2017-02-06T04:47:14.142Z,99.99
2017-02-06T04:47:54.794Z,99.99
2017-02-06T04:48:35.434Z,99.99
2017-02-06T04:49:16.103Z,99.99
2017-02-06T04:49:56.667Z,99.99
2017-02-06T04:50:37.308Z,99.99
2017-02-06T04:51:18.020Z,99.99
2017-02-06T04:51:58.700Z,99.99
2017-02-06T04:52:39.265Z,99.99
2017-02-06T04:53:19.926Z,99.99
2017-02-06T04:54:00.629Z,99.99
2017-02-06T04:54:41.322Z,99.99
2017-02-06T04:55:21.973Z,99.99
2017-02-06T04:56:02.631Z,99.99
2017-02-06T04:56:43.281Z,99.99
2017-02-06T04:57:23.931Z,99.99
2017-02-06T04:58:04.589Z,99.99
2017-02-06T04:58:45.231Z,99.99
2017-02-06T04:59:25.894Z,99.99
2017-02-06T05:00:06.457Z,99.99
2017-02-06T05:00:47.109Z,99.99
2017-02-06T05:01:27.810Z,99.99
2017-02-06T05:02:08.496Z,99.99
2017-02-06T05:02:49.067Z,99.99
2017-02-06T05:03:29.719Z,99.99
2017-02-06T05:04:10.319Z,99.99
2017-02-06T05:04:50.901Z,99.99
2017-02-06T05:05:31.475Z,99.99
2017-02-06T05:06:12.107Z,99.99
2017-02-06T05:06:52.676Z,99.99
2017-02-06T05:07:33.387Z,99.99
2017-02-06T05:08:13.963Z,99.99
2017-02-06T05:08:54.534Z,99.99
2017-02-06T05:09:35.191Z,99.99
2017-02-06T05:10:15.822Z,99.99
2017-02-06T05:10:56.429Z,99.99
2017-02-06T05:11:37.044Z,99.99
2017-02-06T05:12:17.685Z,99.99
2017-02-06T05:12:58.246Z,99.99
2017-02-06T05:13:38.901Z,99.99
2017-02-06T05:14:19.547Z,99.99
2017-02-06T05:15:00.115Z,99.99
2017-02-06T05:15:40.770Z,99.99
2017-02-06T05:16:21.356Z,99.99
2017-02-06T05:17:01.945Z,99.99
2017-02-06T05:17:42.520Z,99.99
2017-02-06T05:18:23.171Z,99.99
2017-02-06T05:19:03.764Z,99.99
2017-02-06T05:19:44.326Z,99.99
2017-02-06T05:20:24.921Z,99.99
2017-02-06T05:21:05.564Z,99.99
2017-02-06T05:21:46.121Z,99.99
2017-02-06T05:22:26.774Z,99.99
2017-02-06T05:23:07.418Z,99.99
2017-02-06T05:23:47.982Z,99.99
2017-02-06T05:24:28.652Z,99.99
2017-02-06T05:25:09.273Z,99.99
2017-02-06T05:25:49.842Z,99.99
2017-02-06T05:26:30.491Z,99.99
2017-02-06T05:27:11.185Z,99.99
2017-02-06T05:27:51.800Z,99.99
2017-02-06T05:28:32.459Z,99.99
2017-02-06T05:29:13.105Z,99.99
2017-02-06T05:29:53.766Z,99.99
2017-02-06T05:30:34.396Z,99.99
2017-02-06T05:31:15.106Z,99.99
2017-02-06T05:31:55.747Z,99.99
2017-02-06T05:32:36.364Z,99.99
2017-02-06T05:33:17.014Z,99.99
2017-02-06T05:33:57.688Z,99.99
2017-02-06T05:34:38.354Z,99.99
2017-02-06T05:35:19.037Z,99.99
2017-02-06T05:35:59.617Z,99.99
2017-02-06T05:36:40.183Z,99.99
2017-02-06T05:37:20.860Z,99.99
2017-02-06T05:38:01.532Z,99.99
2017-02-06T05:38:42.120Z,99.99
2017-02-06T05:39:22.698Z,99.99
2017-02-06T05:40:03.359Z,99.99
2017-02-06T05:40:43.986Z,99.99
2017-02-06T05:41:24.552Z,99.99
2017-02-06T05:42:05.207Z,99.99
2017-02-06T05:42:45.846Z,99.99
2017-02-06T05:43:26.409Z,99.99
2017-02-06T05:44:07.043Z,99.99
2017-02-06T05:44:47.697Z,99.99
2017-02-06T05:45:28.267Z,99.99
2017-02-06T05:46:08.818Z,99.99
2017-02-06T05:46:49.463Z,99.99
2017-02-06T05:47:30.130Z,99.99
2017-02-06T05:48:10.773Z,99.99
2017-02-06T05:48:51.344Z,99.99
2017-02-06T05:49:32.004Z,99.99
2017-02-06T05:50:12.573Z,99.99
2017-02-06T05:50:53.166Z,99.99
2017-02-06T05:51:33.735Z,99.99
2017-02-06T05:52:14.384Z,99.99
2017-02-06T05:52:54.980Z,99.99
2017-02-06T05:53:35.572Z,99.99
2017-02-06T05:54:16.166Z,99.99
2017-02-06T05:54:56.794Z,99.99
2017-02-06T05:55:37.444Z,99.99
2017-02-06T05:56:18.107Z,99.99
2017-02-06T05:56:58.753Z,99.99
2017-02-06T05:57:39.389Z,99.99
2017-02-06T05:58:20.052Z,99.99
2017-02-06T05:59:00.709Z,99.99
2017-02-06T05:59:41.361Z,99.99
2017-02-06T06:00:22.023Z,99.99
2017-02-06T06:01:02.675Z,99.99
2017-02-06T06:01:43.327Z,99.99
2017-02-06T06:02:23.972Z,99.99
2017-02-06T06:03:04.624Z,99.99
2017-02-06T06:03:45.286Z,99.99
2017-02-06T06:04:25.932Z,99.99
2017-02-06T06:05:06.519Z,99.99
2017-02-06T06:05:47.174Z,99.99
2017-02-06T06:06:27.839Z,99.99
2017-02-06T06:07:08.492Z,99.99
2017-02-06T06:07:49.139Z,99.99
2017-02-06T06:08:29.798Z,99.99
2017-02-06T06:09:10.443Z,99.99
2017-02-06T06:09:51.102Z,99.99
2017-02-06T06:10:31.751Z,99.99
2017-02-06T06:11:12.406Z,99.99
2017-02-06T06:11:53.042Z,99.99
2017-02-06T06:12:33.702Z,99.99
2017-02-06T06:13:14.362Z,99.99
2017-02-06T06:13:55.017Z,99.99
2017-02-06T06:14:35.681Z,99.99
2017-02-06T06:15:16.304Z,99.99
2017-02-06T06:15:56.965Z,99.99
2017-02-06T06:16:37.620Z,99.99
2017-02-06T06:17:18.285Z,99.99
2017-02-06T06:17:58.944Z,99.99
2017-02-06T06:18:39.585Z,99.99
2017-02-06T06:19:20.239Z,99.99
2017-02-06T06:20:00.881Z,99.99
2017-02-06T06:20:41.548Z,99.99
2017-02-06T06:21:22.188Z,99.99
2017-02-06T06:22:02.853Z,99.99
2017-02-06T06:22:43.496Z,99.99
2017-02-06T06:23:24.161Z,99.99
2017-02-06T06:24:04.810Z,99.99
2017-02-06T06:24:45.462Z,99.99
2017-02-06T06:25:26.071Z,99.99
2017-02-06T06:26:06.740Z,99.99
2017-02-06T06:26:47.379Z,99.99
2017-02-06T06:27:28.075Z,99.99
2017-02-06T06:28:08.676Z,99.99
2017-02-06T06:28:49.365Z,99.99
2017-02-06T06:29:30.069Z,99.99
2017-02-06T06:30:10.749Z,99.99
2017-02-06T06:30:51.344Z,99.99
2017-02-06T06:31:32.039Z,99.99
2017-02-06T06:32:12.606Z,99.99
2017-02-06T06:32:53.265Z,99.99
2017-02-06T06:33:33.851Z,99.99
2017-02-06T06:34:14.461Z,99.99
2017-02-06T06:34:55.012Z,99.99
2017-02-06T06:35:35.970Z,99.99
2017-02-06T06:36:16.574Z,99.99
2017-02-06T06:36:57.218Z,99.99
2017-02-06T06:37:37.871Z,99.99
2017-02-06T06:38:18.523Z,99.99
2017-02-06T06:38:59.180Z,99.99
2017-02-06T06:39:39.828Z,99.99
2017-02-06T06:40:20.496Z,99.99
2017-02-06T06:41:01.137Z,99.99
2017-02-06T06:41:41.798Z,99.99
2017-02-06T06:42:22.476Z,99.99
2017-02-06T06:43:03.103Z,99.99
2017-02-06T06:43:43.749Z,99.99
2017-02-06T06:44:24.401Z,99.99
2017-02-06T06:45:05.056Z,99.99
2017-02-06T06:45:45.701Z,99.99
2017-02-06T06:46:42.117Z,99.99
2017-02-06T06:47:37.632Z,99.99
2017-02-06T06:48:30.159Z,99.99
2017-02-06T06:49:25.650Z,99.99
2017-02-06T06:50:06.212Z,99.99
2017-02-06T06:50:46.805Z,99.99
2017-02-06T06:51:37.995Z,99.99
2017-02-06T06:52:18.565Z,99.99
2017-02-06T06:53:04.856Z,99.99
2017-02-06T06:54:00.023Z,99.99
2017-02-06T06:54:40.603Z,99.99
2017-02-06T06:55:31.779Z,99.99
2017-02-06T07:22:49.915Z,99.99
2017-02-06T07:23:30.503Z,99.99
2017-02-06T07:24:16.117Z,99.99
2017-02-06T07:24:56.760Z,99.99
2017-02-06T07:25:37.421Z,99.99
2017-02-06T07:26:20.009Z,99.99
2017-02-06T07:27:11.549Z,99.99
2017-02-06T07:28:03.136Z,99.99
2017-02-06T07:28:50.647Z,99.99
2017-02-06T07:29:42.154Z,99.99
2017-02-06T07:30:27.624Z,99.99
2017-02-06T08:14:10.860Z,99.99
2017-02-06T08:14:54.175Z,99.99
2017-02-06T08:15:34.784Z,99.99
2017-02-06T08:16:15.432Z,99.99
2017-02-06T08:16:56.100Z,99.99
2017-02-06T08:17:36.738Z,99.99
2017-02-06T08:18:17.386Z,99.99
2017-02-06T08:18:58.037Z,99.99
2017-02-06T08:19:38.727Z,99.99
2017-02-06T08:20:19.334Z,99.99
2017-02-06T08:21:00.153Z,99.99
2017-02-06T08:21:40.763Z,99.99
2017-02-06T08:22:21.414Z,99.99
2017-02-06T08:23:02.083Z,99.99
2017-02-06T08:23:42.721Z,99.99
2017-02-06T08:24:23.374Z,99.99
2017-02-06T08:25:04.027Z,99.99
2017-02-06T08:25:44.671Z,99.99
2017-02-06T08:26:25.332Z,99.99
2017-02-06T08:27:05.990Z,99.99
2017-02-06T08:27:46.546Z,99.99
2017-02-06T08:28:27.104Z,99.99
2017-02-06T08:29:07.724Z,99.99
2017-02-06T08:29:48.378Z,99.99
2017-02-06T08:30:28.982Z,99.99
2017-02-06T08:31:09.588Z,99.99
2017-02-06T08:31:50.148Z,99.99
2017-02-06T08:32:30.792Z,99.99
2017-02-06T08:33:11.412Z,99.99
2017-02-06T08:33:52.076Z,99.99
2017-02-06T08:34:32.625Z,99.99
2017-02-06T08:35:14.225Z,99.99
2017-02-06T08:35:56.870Z,99.99
2017-02-06T08:36:37.422Z,99.99
2017-02-06T08:37:18.070Z,99.99
2017-02-06T08:37:58.762Z,99.99
2017-02-06T08:38:39.370Z,99.99
2017-02-06T08:39:19.989Z,99.99
2017-02-06T08:40:00.586Z,99.99
2017-02-06T08:40:41.148Z,99.99
2017-02-06T08:41:21.770Z,99.99
2017-02-06T08:42:02.396Z,99.99
2017-02-06T08:42:43.033Z,99.99
2017-02-06T08:43:23.702Z,99.99
2017-02-06T08:44:04.330Z,99.99
2017-02-06T08:44:45.000Z,99.99
2017-02-06T08:45:25.548Z,99.99
2017-02-06T08:46:08.167Z,99.99
2017-02-06T08:46:48.721Z,99.99
2017-02-06T08:47:29.345Z,99.99
2017-02-06T08:48:09.897Z,99.99
2017-02-06T08:48:50.570Z,99.99
2017-02-06T08:49:31.158Z,99.99
2017-02-06T08:50:11.755Z,99.99
2017-02-06T08:50:52.305Z,99.99
2017-02-06T08:51:32.972Z,99.99
2017-02-06T08:52:13.660Z,99.99
2017-02-06T08:52:54.273Z,99.99
2017-02-06T08:53:34.974Z,99.99
2017-02-06T08:54:15.579Z,99.99
2017-02-06T08:54:56.222Z,99.99
2017-02-06T08:55:36.829Z,99.99
2017-02-06T08:56:17.529Z,99.99
2017-02-06T08:56:58.077Z,99.99
2017-02-06T08:57:38.741Z,99.99
2017-02-06T08:58:19.336Z,99.99
2017-02-06T08:58:59.930Z,99.99
2017-02-06T08:59:40.489Z,99.99
2017-02-06T09:00:21.138Z,99.99
2017-02-06T09:01:01.797Z,99.99
2017-02-06T09:01:42.450Z,99.99
2017-02-06T09:02:23.097Z,99.99
2017-02-06T09:03:03.761Z,99.99
2017-02-06T09:03:44.402Z,99.99
2017-02-06T09:04:25.066Z,99.99
2017-02-06T09:05:05.704Z,99.99
2017-02-06T09:05:46.363Z,99.99
2017-02-06T09:06:26.935Z,99.99
2017-02-06T09:07:07.595Z,99.99
2017-02-06T09:07:50.260Z,99.99
2017-02-06T09:08:30.841Z,99.99
2017-02-06T09:09:12.490Z,99.99
2017-02-06T09:09:53.069Z,99.99
2017-02-06T09:10:33.621Z,99.99
2017-02-06T09:11:14.186Z,99.99
2017-02-06T09:11:54.817Z,99.99
2017-02-06T09:12:35.498Z,99.99
2017-02-06T09:13:17.122Z,99.99
2017-02-06T09:13:57.703Z,99.99
2017-02-06T09:14:38.340Z,99.99
2017-02-06T09:15:18.941Z,99.99
2017-02-06T09:15:59.498Z,99.99
2017-02-06T09:16:40.091Z,99.99
2017-02-06T09:17:20.742Z,99.99
2017-02-06T09:18:01.389Z,99.99
2017-02-06T09:18:42.048Z,99.99
2017-02-06T09:19:22.718Z,99.99
2017-02-06T09:20:03.377Z,99.99
2017-02-06T09:20:43.966Z,99.99
2017-02-06T09:21:24.651Z,99.99
2017-02-06T09:22:05.222Z,99.99
2017-02-06T09:22:46.915Z,99.99
2017-02-06T09:23:28.533Z,99.99
2017-02-06T09:24:09.109Z,99.99
2017-02-06T09:24:49.662Z,99.99
2017-02-06T09:25:30.319Z,99.99
2017-02-06T09:26:10.980Z,99.99
2017-02-06T09:26:51.630Z,99.99
2017-02-06T09:27:32.301Z,99.99
2017-02-06T09:28:12.931Z,99.99
2017-02-06T09:28:53.577Z,99.99
2017-02-06T09:29:34.238Z,99.99
2017-02-06T09:30:14.889Z,99.99
2017-02-06T09:30:55.478Z,99.99
2017-02-06T09:31:36.079Z,99.99
2017-02-06T09:32:16.642Z,99.99
2017-02-06T09:32:57.290Z,99.99
2017-02-06T09:33:37.889Z,99.99
2017-02-06T09:34:18.511Z,99.99
2017-02-06T09:34:59.076Z,99.99
2017-02-06T09:35:39.708Z,99.99
2017-02-06T09:36:20.392Z,99.99
2017-02-06T09:37:01.003Z,99.99
2017-02-06T09:37:41.603Z,99.99
2017-02-06T09:38:22.265Z,99.99
2017-02-06T09:39:02.918Z,99.99
2017-02-06T09:39:43.576Z,99.99
2017-02-06T09:40:24.178Z,99.99
2017-02-06T09:41:04.720Z,99.99
2017-02-06T09:41:47.313Z,99.99
2017-02-06T09:42:27.936Z,99.99
2017-02-06T09:43:08.501Z,99.99
2017-02-06T09:43:49.064Z,99.99
2017-02-06T09:44:29.766Z,99.99
2017-02-06T09:45:10.327Z,99.99
2017-02-06T09:45:51.950Z,99.99
2017-02-06T09:46:32.502Z,99.99
2017-02-06T09:47:13.155Z,99.99
2017-02-06T09:47:54.788Z,99.99
2017-02-06T09:48:36.400Z,99.99
2017-02-06T09:49:16.954Z,99.99
2017-02-06T09:49:57.611Z,99.99
2017-02-06T09:50:38.200Z,99.99
2017-02-06T09:51:18.774Z,99.99
2017-02-06T09:51:59.379Z,99.99
2017-02-06T09:52:42.069Z,99.99
2017-02-06T09:53:22.629Z,99.99
2017-02-06T09:54:03.270Z,99.99
2017-02-06T09:54:43.916Z,99.99
2017-02-06T09:55:24.491Z,99.99
2017-02-06T09:56:05.150Z,99.99
2017-02-06T09:56:45.782Z,99.99
2017-02-06T09:57:26.456Z,99.99
2017-02-06T09:58:07.070Z,99.99